Time;durP1;ratioP1;P1;durP2;ratioP2;P2;SDS_P1;SDS_P2;PMS_P1;PMS_P2;Temp;Humidity;BMP_temperature;BMP_pressure;BME280_temperature;BME280_humidity;BME280_pressure;Samples;Min_cycle;Max_cycle;Signal;HPM_P1;HPM_P2
2022/04/28 00:01:14;;;;;;;;;;;;;;;;;;5047828;28;20582;-76
2022/04/28 00:03:40;;;;;;;;;;;;;;;;;;5038690;28;19961;-76
2022/04/28 00:06:06;;;;;;;;;;;;;;;;;;5054578;28;20369;-76
2022/04/28 00:08:33;;;;;;;;;;;;;;;;;;5050507;28;19948;-76
2022/04/28 00:10:59;;;;;;;;;;;;;;;;;;5020499;28;20249;-76
2022/04/28 00:13:27;;;;;;;;;;;;;;;;;;5034713;28;20495;-76
2022/04/28 00:15:54;;;;;;;;;;;;;;;;;;5048038;28;20333;-76
2022/04/28 00:18:20;;;;;;;;;;;;;;;;;;5047172;28;19959;-75
2022/04/28 00:20:46;;;;;;;;;;;;;;;;;;5046572;28;20775;-75
2022/04/28 00:23:12;;;;;;;;;;;;;;;;;;5042324;28;19971;-74
2022/04/28 00:25:38;;;;;;;;;;;;;;;;;;5047989;28;20714;-77
2022/04/28 00:28:04;;;;;;;;;;;;;;;;;;5045748;28;19975;-74
2022/04/28 00:30:31;;;;;;;;;;;;;;;;;;5046972;28;19964;-76
2022/04/28 00:32:57;;;;;;;;;;;;;;;;;;5046282;28;19968;-76
2022/04/28 00:35:23;;;;;;;;;;;;;;;;;;5045344;28;20068;-74
2022/04/28 00:37:49;;;;;;;;;;;;;;;;;;5032333;28;19972;-75
2022/04/28 00:40:15;;;;;;;;;;;;;;;;;;5048417;28;19952;-75
2022/04/28 00:42:42;;;;;;;;;;;;;;;;;;5054637;28;19921;-75
2022/04/28 00:45:08;;;;;;;;;;;;;;;;;;5057833;28;19952;-74
2022/04/28 00:53:04;;;;;;;;;;;;;;;;;;5051249;28;20237;-75
2022/04/28 00:55:30;;;;;;;;;;;;;;;;;;5051613;28;19948;-75
2022/04/28 00:57:56;;;;;;;;;;;;;;;;;;5049338;28;19941;-76
2022/04/28 01:00:23;;;;;;;;;;;;;;;;;;5048690;28;19955;-76
2022/04/28 01:02:49;;;;;;;;;;;;;;;;;;5051947;28;19968;-77
2022/04/28 01:05:15;;;;;;;;;;;;;;;;;;5057623;28;19948;-76
2022/04/28 01:07:41;;;;;;;;;;;;;;;;;;5055571;28;19964;-76
2022/04/28 01:10:08;;;;;;;;;;;;;;;;;;5066825;28;19944;-75
2022/04/28 01:12:36;;;;;;;;;;;;;;;;;;5034759;28;19949;-76
2022/04/28 01:15:02;;;;;;;;;;;;;;;;;;5041691;28;19956;-75
2022/04/28 01:17:28;;;;;;;;;;;;;;;;;;5051293;28;19975;-77
2022/04/28 01:19:54;;;;;;;;;;;;;;;;;;5037137;28;19971;-75
2022/04/28 01:22:20;;;;;;;;;;;;;;;;;;5045035;28;19960;-75
2022/04/28 01:24:46;;;;;;;;;;;;;;;;;;5051570;28;19960;-75
2022/04/28 01:27:13;;;;;;;;;;;;;;;;;;5048191;28;20593;-75
2022/04/28 01:29:40;;;;;;;;;;;;;;;;;;5048053;28;20026;-76
2022/04/28 01:32:06;;;;;;;;;;;;;;;;;;5067389;28;19979;-76
2022/04/28 01:34:32;;;;;;;;;;;;;;;;;;5052675;28;19998;-78
2022/04/28 01:36:58;;;;;;;;;;;;;;;;;;5045973;28;19963;-75
2022/04/28 01:39:24;;;;;;;;;;;;;;;;;;5038796;28;19959;-76
2022/04/28 01:41:51;;;;;;;;;;;;;;;;;;5053613;28;19971;-75
2022/04/28 01:44:17;;;;;;;;;;;;;;;;;;5050372;28;19982;-75
2022/04/28 01:46:43;;;;;;;;;;;;;;;;;;5029430;28;19964;-75
2022/04/28 01:49:09;;;;;;;;;;;;;;;;;;5026993;28;19945;-75
2022/04/28 01:57:05;;;;;;;;;;;;;;;;;;5030672;28;20285;-75
2022/04/28 01:59:31;;;;;;;;;;;;;;;;;;5054770;28;20341;-75
2022/04/28 02:01:57;;;;;;;;;;;;;;;;;;5050447;28;19948;-77
2022/04/28 02:04:23;;;;;;;;;;;;;;;;;;5065378;28;19956;-76
2022/04/28 02:06:50;;;;;;;;;;;;;;;;;;5044672;28;19976;-75
2022/04/28 02:09:16;;;;;;;;;;;;;;;;;;5056105;28;19913;-75
2022/04/28 02:11:42;;;;;;;;;;;;;;;;;;5035501;28;19913;-76
2022/04/28 02:14:08;;;;;;;;;;;;;;;;;;5035811;28;19917;-77
2022/04/28 02:16:34;;;;;;;;;;;;;;;;;;5046638;28;20047;-77
2022/04/28 02:19:01;;;;;;;;;;;;;;;;;;5032668;28;20387;-76
2022/04/28 02:21:27;;;;;;;;;;;;;;;;;;5048780;28;19957;-76
2022/04/28 02:23:53;;;;;;;;;;;;;;;;;;5034683;28;19921;-76
2022/04/28 02:26:20;;;;;;;;;;;;;;;;;;5045070;28;19963;-76
2022/04/28 02:28:46;;;;;;;;;;;;;;;;;;5052283;28;19960;-76
2022/04/28 02:31:12;;;;;;;;;;;;;;;;;;5050133;28;20360;-75
2022/04/28 02:33:38;;;;;;;;;;;;;;;;;;5048804;28;19956;-77
2022/04/28 02:36:04;;;;;;;;;;;;;;;;;;5035836;28;19955;-77
2022/04/28 02:38:31;;;;;;;;;;;;;;;;;;5048922;28;19956;-74
2022/04/28 02:40:57;;;;;;;;;;;;;;;;;;5051058;28;19963;-75
2022/04/28 02:43:23;;;;;;;;;;;;;;;;;;5041741;28;19967;-75
2022/04/28 02:45:49;;;;;;;;;;;;;;;;;;5051015;28;19955;-75
2022/04/28 02:48:15;;;;;;;;;;;;;;;;;;5038735;28;19952;-75
2022/04/28 02:50:41;;;;;;;;;;;;;;;;;;5054036;28;19956;-75
2022/04/28 02:53:08;;;;;;;;;;;;;;;;;;5052438;28;20403;-75
2022/04/28 02:55:34;;;;;;;;;;;;;;;;;;5048335;28;19948;-75
2022/04/28 02:58:00;;;;;;;;;;;;;;;;;;5047340;28;20345;-75
2022/04/28 03:00:27;;;;;;;;;;;;;;;;;;5057581;28;19953;-75
2022/04/28 03:02:53;;;;;;;;;;;;;;;;;;5047897;28;19960;-75
2022/04/28 03:05:19;;;;;;;;;;;;;;;;;;5052406;28;20410;-76
2022/04/28 03:10:50;;;;;;;;;;;;;;;;;;5046408;28;20455;-77
2022/04/28 03:13:17;;;;;;;;;;;;;;;;;;5043693;28;20512;-76
2022/04/28 03:15:43;;;;;;;;;;;;;;;;;;5048975;28;19917;-75
2022/04/28 03:18:10;;;;;;;;;;;;;;;;;;5049919;28;20016;-76
2022/04/28 03:20:36;;;;;;;;;;;;;;;;;;5038585;28;19945;-76
2022/04/28 03:23:02;;;;;;;;;;;;;;;;;;5048864;28;20030;-76
2022/04/28 03:25:28;;;;;;;;;;;;;;;;;;5045451;28;19952;-77
2022/04/28 03:28:15;;;;;;;;;;;;;;;;;;5030523;28;19916;-77
2022/04/28 03:31:10;;;;;;;;;;;;;;;;;;5024686;28;19940;-76
2022/04/28 03:34:04;;;;;;;;;;;;;;;;;;5027812;28;20399;-78
2022/04/28 03:36:51;;;;;;;;;;;;;;;;;;5052869;28;20396;-74
2022/04/28 03:42:29;;;;;;;;;;;;;;;;;;5019045;28;19932;-77
2022/04/28 03:44:58;;;;;;;;;;;;;;;;;;5033594;28;20380;-78
2022/04/28 03:47:24;;;;;;;;;;;;;;;;;;5039784;28;19979;-76
2022/04/28 03:49:50;;;;;;;;;;;;;;;;;;5024048;28;19916;-76
2022/04/28 03:52:17;;;;;;;;;;;;;;;;;;5035251;28;19918;-76
2022/04/28 03:54:43;;;;;;;;;;;;;;;;;;5037990;28;19952;-75
2022/04/28 03:57:09;;;;;;;;;;;;;;;;;;5052163;28;19963;-75
2022/04/28 03:59:35;;;;;;;;;;;;;;;;;;5036962;28;19948;-76
2022/04/28 04:02:01;;;;;;;;;;;;;;;;;;5033490;28;19948;-75
2022/04/28 04:04:27;;;;;;;;;;;;;;;;;;5041093;28;19953;-74
2022/04/28 04:06:54;;;;;;;;;;;;;;;;;;5049611;28;19988;-77
2022/04/28 04:09:20;;;;;;;;;;;;;;;;;;5038499;28;20006;-76
2022/04/28 04:11:46;;;;;;;;;;;;;;;;;;5039973;28;19948;-74
2022/04/28 04:14:13;;;;;;;;;;;;;;;;;;5036021;28;20369;-77
2022/04/28 04:16:39;;;;;;;;;;;;;;;;;;5021841;28;19951;-77
2022/04/28 04:19:05;;;;;;;;;;;;;;;;;;5041775;28;20368;-76
2022/04/28 04:21:31;;;;;;;;;;;;;;;;;;5032567;28;20022;-76
2022/04/28 04:23:58;;;;;;;;;;;;;;;;;;5036594;28;20924;-76
2022/04/28 04:26:24;;;;;;;;;;;;;;;;;;5039598;28;19967;-75
2022/04/28 04:28:50;;;;;;;;;;;;;;;;;;5049488;28;19939;-76
2022/04/28 04:34:02;;;;;;;;;;;;;;;;;;5051047;28;19917;-75
2022/04/28 04:36:28;;;;;;;;;;;;;;;;;;5050393;28;19960;-75
2022/04/28 04:38:54;;;;;;;;;;;;;;;;;;5051430;28;20042;-74
2022/04/28 04:41:20;;;;;;;;;;;;;;;;;;5051374;28;19913;-74
2022/04/28 04:43:47;;;;;;;;;;;;;;;;;;5050751;28;20447;-74
2022/04/28 04:46:13;;;;;;;;;;;;;;;;;;5053139;28;19952;-74
2022/04/28 04:48:39;;;;;;;;;;;;;;;;;;5034654;28;19994;-75
2022/04/28 04:51:05;;;;;;;;;;;;;;;;;;5040666;28;19944;-74
2022/04/28 04:53:31;;;;;;;;;;;;;;;;;;5044140;28;19948;-74
2022/04/28 04:55:58;;;;;;;;;;;;;;;;;;5044491;28;19957;-75
2022/04/28 04:58:24;;;;;;;;;;;;;;;;;;5054593;28;19964;-75
2022/04/28 05:00:50;;;;;;;;;;;;;;;;;;5037906;28;20010;-75
2022/04/28 05:03:16;;;;;;;;;;;;;;;;;;5049904;28;19967;-75
2022/04/28 05:05:44;;;;;;;;;;;;;;;;;;5051364;28;19947;-75
2022/04/28 05:08:10;;;;;;;;;;;;;;;;;;5045039;28;19955;-75
2022/04/28 05:10:37;;;;;;;;;;;;;;;;;;5044829;28;19990;-75
2022/04/28 05:13:03;;;;;;;;;;;;;;;;;;5052800;28;20453;-75
2022/04/28 05:15:30;;;;;;;;;;;;;;;;;;5041421;28;19940;-75
2022/04/28 05:17:56;;;;;;;;;;;;;;;;;;5072851;28;19967;-75
2022/04/28 05:20:22;;;;;;;;;;;;;;;;;;5056875;28;19943;-75
2022/04/28 05:22:48;;;;;;;;;;;;;;;;;;5053207;28;19971;-75
2022/04/28 05:25:15;;;;;;;;;;;;;;;;;;5055848;28;19917;-75
2022/04/28 05:27:41;;;;;;;;;;;;;;;;;;5040451;28;19953;-75
2022/04/28 05:30:07;;;;;;;;;;;;;;;;;;5052247;28;19948;-74
2022/04/28 05:32:35;;;;;;;;;;;;;;;;;;5040522;28;20451;-75
2022/04/28 05:35:01;;;;;;;;;;;;;;;;;;5027448;28;19952;-74
2022/04/28 05:37:28;;;;;;;;;;;;;;;;;;5075005;28;19952;-74
2022/04/28 05:39:54;;;;;;;;;;;;;;;;;;5054909;28;19979;-74
2022/04/28 05:42:20;;;;;;;;;;;;;;;;;;5064147;28;19948;-74
2022/04/28 05:47:31;;;;;;;;;;;;;;;;;;5044938;28;20590;-74
2022/04/28 05:49:57;;;;;;;;;;;;;;;;;;5050322;28;19948;-75
2022/04/28 05:52:23;;;;;;;;;;;;;;;;;;5046763;28;20013;-75
2022/04/28 05:54:50;;;;;;;;;;;;;;;;;;5050109;28;19963;-75
2022/04/28 05:57:18;;;;;;;;;;;;;;;;;;5050380;28;19952;-75
2022/04/28 05:59:44;;;;;;;;;;;;;;;;;;5044797;28;19958;-75
2022/04/28 06:02:11;;;;;;;;;;;;;;;;;;5058162;28;20427;-75
2022/04/28 06:04:37;;;;;;;;;;;;;;;;;;5052960;28;19982;-76
2022/04/28 06:07:05;;;;;;;;;;;;;;;;;;5046343;28;20313;-76
2022/04/28 06:09:31;;;;;;;;;;;;;;;;;;5051816;28;19959;-76
2022/04/28 06:11:58;;;;;;;;;;;;;;;;;;5047232;28;19944;-74
2022/04/28 06:14:24;;;;;;;;;;;;;;;;;;5053925;28;19923;-75
2022/04/28 06:16:50;;;;;;;;;;;;;;;;;;5036076;28;19948;-75
2022/04/28 06:19:19;;;;;;;;;;;;;;;;;;5046173;28;19947;-75
2022/04/28 06:21:45;;;;;;;;;;;;;;;;;;5053724;28;19974;-75
2022/04/28 06:24:12;;;;;;;;;;;;;;;;;;5065214;28;19959;-78
2022/04/28 06:26:38;;;;;;;;;;;;;;;;;;5044346;28;19957;-75
2022/04/28 06:29:04;;;;;;;;;;;;;;;;;;5046649;28;19960;-76
2022/04/28 06:31:30;;;;;;;;;;;;;;;;;;5042736;28;19960;-76
2022/04/28 06:33:56;;;;;;;;;;;;;;;;;;5048098;28;20433;-76
2022/04/28 06:36:22;;;;;;;;;;;;;;;;;;5036140;28;19963;-76
2022/04/28 06:38:49;;;;;;;;;;;;;;;;;;5037251;28;19947;-73
2022/04/28 06:41:15;;;;;;;;;;;;;;;;;;5038786;28;19960;-75
2022/04/28 06:43:41;;;;;;;;;;;;;;;;;;5053543;28;20341;-76
2022/04/28 06:46:13;;;;;;;;;;;;;;;;;;5044141;28;19964;-81
2022/04/28 06:48:39;;;;;;;;;;;;;;;;;;5044819;28;20290;-80
2022/04/28 06:51:06;;;;;;;;;;;;;;;;;;5041730;28;19945;-80
2022/04/28 06:53:32;;;;;;;;;;;;;;;;;;5051289;28;19948;-80
2022/04/28 06:55:58;;;;;;;;;;;;;;;;;;5049279;28;19973;-81
2022/04/28 06:58:24;;;;;;;;;;;;;;;;;;5068208;28;19966;-81
2022/04/28 07:00:50;;;;;;;;;;;;;;;;;;5039379;28;19956;-81
2022/04/28 07:03:16;;;;;;;;;;;;;;;;;;5048578;28;19952;-82
2022/04/28 07:05:43;;;;;;;;;;;;;;;;;;5046299;28;19951;-80
2022/04/28 07:08:09;;;;;;;;;;;;;;;;;;5046031;28;19952;-80
2022/04/28 07:10:37;;;;;;;;;;;;;;;;;;5036087;28;20423;-80
2022/04/28 07:13:03;;;;;;;;;;;;;;;;;;5053341;28;20407;-80
2022/04/28 07:15:29;;;;;;;;;;;;;;;;;;5037030;28;19944;-80
2022/04/28 07:17:56;;;;;;;;;;;;;;;;;;5058414;28;20009;-80
2022/04/28 07:20:22;;;;;;;;;;;;;;;;;;5034801;28;19913;-80
2022/04/28 07:22:48;;;;;;;;;;;;;;;;;;5041887;28;19952;-80
2022/04/28 07:25:15;;;;;;;;;;;;;;;;;;5035581;28;19966;-80
2022/04/28 07:27:41;;;;;;;;;;;;;;;;;;5050703;28;19956;-79
2022/04/28 07:30:07;;;;;;;;;;;;;;;;;;5049953;28;19944;-80
2022/04/28 07:32:33;;;;;;;;;;;;;;;;;;5043616;28;20297;-80
2022/04/28 07:34:59;;;;;;;;;;;;;;;;;;5047395;28;19967;-81
2022/04/28 07:37:25;;;;;;;;;;;;;;;;;;5045646;28;19944;-80
2022/04/28 07:39:52;;;;;;;;;;;;;;;;;;5050432;28;19947;-80
2022/04/28 07:42:18;;;;;;;;;;;;;;;;;;5027466;28;19987;-80
2022/04/28 07:44:44;;;;;;;;;;;;;;;;;;5056725;28;19917;-80
2022/04/28 07:47:10;;;;;;;;;;;;;;;;;;5064979;28;20457;-80
2022/04/28 07:49:36;;;;;;;;;;;;;;;;;;5050081;28;19952;-81
2022/04/28 07:52:03;;;;;;;;;;;;;;;;;;5032806;28;19956;-80
2022/04/28 07:54:29;;;;;;;;;;;;;;;;;;5047000;28;20020;-79
2022/04/28 07:56:55;;;;;;;;;;;;;;;;;;5030545;28;19950;-80
2022/04/28 07:59:21;;;;;;;;;;;;;;;;;;5035390;28;20020;-80
2022/04/28 08:01:47;;;;;;;;;;;;;;;;;;5049601;28;19967;-84
2022/04/28 08:04:14;;;;;;;;;;;;;;;;;;5038965;28;20395;-79
2022/04/28 08:06:40;;;;;;;;;;;;;;;;;;5036379;28;19960;-79
2022/04/28 08:09:06;;;;;;;;;;;;;;;;;;5037987;28;20467;-79
2022/04/28 08:11:32;;;;;;;;;;;;;;;;;;5023815;28;19979;-80
2022/04/28 08:13:58;;;;;;;;;;;;;;;;;;5060060;28;19975;-80
2022/04/28 08:16:24;;;;;;;;;;;;;;;;;;5042841;28;20000;-80
2022/04/28 08:18:52;;;;;;;;;;;;;;;;;;5056393;28;19934;-80
2022/04/28 08:21:18;;;;;;;;;;;;;;;;;;5032506;28;19991;-80
2022/04/28 08:23:45;;;;;;;;;;;;;;;;;;5034119;28;20017;-79
2022/04/28 08:26:11;;;;;;;;;;;;;;;;;;5043034;28;19944;-80
2022/04/28 08:28:37;;;;;;;;;;;;;;;;;;5030945;28;19913;-80
2022/04/28 08:31:03;;;;;;;;;;;;;;;;;;5051137;28;20030;-81
2022/04/28 08:33:29;;;;;;;;;;;;;;;;;;5048912;28;20063;-81
2022/04/28 08:35:56;;;;;;;;;;;;;;;;;;5042950;28;19967;-81
2022/04/28 08:38:22;;;;;;;;;;;;;;;;;;5047501;28;19960;-80
2022/04/28 08:40:48;;;;;;;;;;;;;;;;;;5026342;28;19961;-81
2022/04/28 08:43:14;;;;;;;;;;;;;;;;;;5036438;28;19967;-83
2022/04/28 08:46:50;;;;;;;;;;;;;;;;;;5048406;28;20018;-81
2022/04/28 08:48:26;;;;;;;;;;;;;;;;;;5038266;28;20002;-82
2022/04/28 08:50:53;;;;;;;;;;;;;;;;;;5031916;28;20009;-81
2022/04/28 08:53:19;;;;;;;;;;;;;;;;;;5047476;28;19959;-82
2022/04/28 08:55:45;;;;;;;;;;;;;;;;;;5025965;28;19979;-81
2022/04/28 08:58:11;;;;;;;;;;;;;;;;;;5038829;28;19991;-81
2022/04/28 09:00:38;;;;;;;;;;;;;;;;;;5045430;28;19956;-82
2022/04/28 09:03:04;;;;;;;;;;;;;;;;;;5064708;28;19952;-80
2022/04/28 09:05:30;;;;;;;;;;;;;;;;;;5015917;28;19917;-82
2022/04/28 09:07:56;;;;;;;;;;;;;;;;;;5057083;28;20034;-82
2022/04/28 09:10:22;;;;;;;;;;;;;;;;;;5054567;28;19948;-79
2022/04/28 09:12:48;;;;;;;;;;;;;;;;;;5038629;28;19956;-81
2022/04/28 09:15:17;;;;;;;;;;;;;;;;;;5041766;28;19963;-80
2022/04/28 09:17:44;;;;;;;;;;;;;;;;;;5067446;28;19952;-80
2022/04/28 09:20:10;;;;;;;;;;;;;;;;;;5048901;28;19952;-81
2022/04/28 09:22:36;;;;;;;;;;;;;;;;;;5049781;28;19967;-81
2022/04/28 09:25:02;;;;;;;;;;;;;;;;;;5046288;28;19983;-82
2022/04/28 09:27:28;;;;;;;;;;;;;;;;;;5044118;28;20003;-82
2022/04/28 09:29:55;;;;;;;;;;;;;;;;;;5052929;28;20388;-82
2022/04/28 09:32:21;;;;;;;;;;;;;;;;;;5050442;28;19971;-82
2022/04/28 09:34:48;;;;;;;;;;;;;;;;;;5041671;28;19972;-82
2022/04/28 09:37:16;;;;;;;;;;;;;;;;;;5061636;28;19944;-82
2022/04/28 09:45:20;;;;;;;;;;;;;;;;;;5016995;28;21268;-82
2022/04/28 09:47:46;;;;;;;;;;;;;;;;;;5054505;28;19957;-81
2022/04/28 09:50:12;;;;;;;;;;;;;;;;;;5033260;28;19959;-82
2022/04/28 09:52:39;;;;;;;;;;;;;;;;;;5054294;28;20405;-81
2022/04/28 09:55:05;;;;;;;;;;;;;;;;;;5044732;28;19975;-82
2022/04/28 09:57:31;;;;;;;;;;;;;;;;;;5016830;28;19935;-81
2022/04/28 09:59:57;;;;;;;;;;;;;;;;;;5039084;28;19952;-81
2022/04/28 10:02:23;;;;;;;;;;;;;;;;;;5041005;28;19979;-81
2022/04/28 10:04:50;;;;;;;;;;;;;;;;;;5042794;28;19956;-81
2022/04/28 10:07:16;;;;;;;;;;;;;;;;;;5041804;28;19955;-81
2022/04/28 10:09:42;;;;;;;;;;;;;;;;;;5040932;28;20007;-81
2022/04/28 10:12:08;;;;;;;;;;;;;;;;;;5041680;28;19952;-81
2022/04/28 10:14:34;;;;;;;;;;;;;;;;;;5041662;28;20380;-81
2022/04/28 10:17:01;;;;;;;;;;;;;;;;;;5049212;28;20004;-81
2022/04/28 10:19:27;;;;;;;;;;;;;;;;;;5039437;28;19964;-82
2022/04/28 10:21:53;;;;;;;;;;;;;;;;;;5038977;28;19913;-81
2022/04/28 10:32:34;;;;;;;;;;;;;;;;;;5052050;28;19968;-79
2022/04/28 10:35:03;;;;;;;;;;;;;;;;;;5050097;28;19953;-81
2022/04/28 10:37:30;;;;;;;;;;;;;;;;;;5043079;28;20436;-81
2022/04/28 10:39:56;;;;;;;;;;;;;;;;;;5038126;28;19983;-80
2022/04/28 10:42:22;;;;;;;;;;;;;;;;;;5034919;28;19964;-81
2022/04/28 10:44:51;;;;;;;;;;;;;;;;;;5027824;28;20353;-79
2022/04/28 10:47:18;;;;;;;;;;;;;;;;;;5053231;28;20388;-81
2022/04/28 10:49:44;;;;;;;;;;;;;;;;;;5054944;28;19960;-81
2022/04/28 10:52:10;;;;;;;;;;;;;;;;;;5036282;28;19921;-82
2022/04/28 10:54:37;;;;;;;;;;;;;;;;;;5042523;28;19960;-81
2022/04/28 10:57:03;;;;;;;;;;;;;;;;;;5044211;28;20399;-81
2022/04/28 10:59:32;;;;;;;;;;;;;;;;;;5061774;28;19960;-81
2022/04/28 11:01:58;;;;;;;;;;;;;;;;;;5031357;28;19920;-81
2022/04/28 11:04:27;;;;;;;;;;;;;;;;;;5018367;28;19928;-81
2022/04/28 11:06:53;;;;;;;;;;;;;;;;;;5041720;28;19916;-81
2022/04/28 11:09:19;;;;;;;;;;;;;;;;;;5061144;28;19960;-81
2022/04/28 11:11:46;;;;;;;;;;;;;;;;;;5037381;28;19986;-80
2022/04/28 11:14:12;;;;;;;;;;;;;;;;;;5048880;28;19952;-81
2022/04/28 11:16:38;;;;;;;;;;;;;;;;;;5051750;28;20029;-80
2022/04/28 11:19:05;;;;;;;;;;;;;;;;;;5059345;28;20501;-81
2022/04/28 11:21:31;;;;;;;;;;;;;;;;;;5046682;28;19944;-81
2022/04/28 11:23:57;;;;;;;;;;;;;;;;;;5043470;28;20014;-81
2022/04/28 11:26:23;;;;;;;;;;;;;;;;;;5051227;28;19963;-81
2022/04/28 11:28:50;;;;;;;;;;;;;;;;;;5049247;28;19975;-81
2022/04/28 11:31:18;;;;;;;;;;;;;;;;;;5037541;28;19960;-80
2022/04/28 11:33:45;;;;;;;;;;;;;;;;;;5054627;28;20357;-80
2022/04/28 11:36:11;;;;;;;;;;;;;;;;;;5059591;28;20314;-82
2022/04/28 11:38:38;;;;;;;;;;;;;;;;;;5042539;28;19956;-79
2022/04/28 11:41:04;;;;;;;;;;;;;;;;;;5033313;28;19948;-81
2022/04/28 11:43:31;;;;;;;;;;;;;;;;;;5036147;28;19976;-81
2022/04/28 11:45:57;;;;;;;;;;;;;;;;;;5037502;28;20396;-81
2022/04/28 11:48:23;;;;;;;;;;;;;;;;;;5041531;28;19953;-81
2022/04/28 11:50:49;;;;;;;;;;;;;;;;;;5036975;28;19968;-81
2022/04/28 11:53:16;;;;;;;;;;;;;;;;;;5035266;28;19979;-84
2022/04/28 11:55:42;;;;;;;;;;;;;;;;;;5042533;28;19949;-80
2022/04/28 11:58:09;;;;;;;;;;;;;;;;;;5044901;28;19925;-81
2022/04/28 12:00:35;;;;;;;;;;;;;;;;;;5033563;28;19955;-82
2022/04/28 12:03:03;;;;;;;;;;;;;;;;;;5040043;28;19968;-81
2022/04/28 12:05:32;;;;;;;;;;;;;;;;;;5054089;28;19944;-81
2022/04/28 12:07:58;;;;;;;;;;;;;;;;;;5034694;28;20403;-81
2022/04/28 12:15:54;;;;;;;;;;;;;;;;;;5041979;28;19922;-78
2022/04/28 12:21:06;;;;;;;;;;;;;;;;;;5045057;28;20716;-78
2022/04/28 12:23:32;;;;;;;;;;;;;;;;;;5056490;28;20434;-77
2022/04/28 12:25:59;;;;;;;;;;;;;;;;;;5049641;28;19949;-77
2022/04/28 12:28:26;;;;;;;;;;;;;;;;;;5048763;28;19921;-77
2022/04/28 12:30:52;;;;;;;;;;;;;;;;;;5052976;28;19952;-77
2022/04/28 12:33:18;;;;;;;;;;;;;;;;;;5051112;28;20042;-77
2022/04/28 12:35:44;;;;;;;;;;;;;;;;;;5043319;28;19956;-77
2022/04/28 12:38:10;;;;;;;;;;;;;;;;;;5036287;28;20427;-77
2022/04/28 12:40:37;;;;;;;;;;;;;;;;;;5035981;28;20009;-78
2022/04/28 12:43:03;;;;;;;;;;;;;;;;;;5028453;28;19948;-77
2022/04/28 12:45:29;;;;;;;;;;;;;;;;;;5048843;28;20032;-77
2022/04/28 12:47:55;;;;;;;;;;;;;;;;;;5049755;28;22069;-77
2022/04/28 12:50:21;;;;;;;;;;;;;;;;;;5046223;28;20289;-78
2022/04/28 12:52:48;;;;;;;;;;;;;;;;;;5044103;28;19913;-77
2022/04/28 12:55:14;;;;;;;;;;;;;;;;;;5035019;28;20401;-77
2022/04/28 12:57:40;;;;;;;;;;;;;;;;;;5045745;28;19964;-77
2022/04/28 13:00:07;;;;;;;;;;;;;;;;;;5043148;28;19952;-78
2022/04/28 13:02:33;;;;;;;;;;;;;;;;;;5049258;28;19965;-77
2022/04/28 13:04:59;;;;;;;;;;;;;;;;;;5050018;28;20613;-78
2022/04/28 13:07:25;;;;;;;;;;;;;;;;;;5051825;28;19952;-78
2022/04/28 13:09:51;;;;;;;;;;;;;;;;;;5050506;28;19957;-78
2022/04/28 13:12:18;;;;;;;;;;;;;;;;;;5059551;28;19916;-77
2022/04/28 13:14:44;;;;;;;;;;;;;;;;;;5039427;28;20333;-76
2022/04/28 13:17:10;;;;;;;;;;;;;;;;;;5046088;28;19925;-76
2022/04/28 13:19:36;;;;;;;;;;;;;;;;;;5042935;28;19953;-76
2022/04/28 13:22:02;;;;;;;;;;;;;;;;;;5048134;28;19936;-75
2022/04/28 13:24:28;;;;;;;;;;;;;;;;;;5040289;28;19994;-77
2022/04/28 13:26:55;;;;;;;;;;;;;;;;;;5036097;28;19944;-76
2022/04/28 13:29:24;;;;;;;;;;;;;;;;;;5034751;28;19969;-76
2022/04/28 13:31:50;;;;;;;;;;;;;;;;;;5040288;28;19968;-75
2022/04/28 13:34:16;;;;;;;;;;;;;;;;;;5063557;28;20349;-75
2022/04/28 13:36:42;;;;;;;;;;;;;;;;;;5043659;28;19952;-75
2022/04/28 13:39:08;;;;;;;;;;;;;;;;;;5040868;28;19952;-76
2022/04/28 13:41:35;;;;;;;;;;;;;;;;;;5039143;28;19963;-77
2022/04/28 13:44:06;;;;;;;;;;;;;;;;;;5039891;28;19936;-75
2022/04/28 13:46:33;;;;;;;;;;;;;;;;;;5063693;28;19913;-76
2022/04/28 13:48:59;;;;;;;;;;;;;;;;;;5032726;28;19952;-76
2022/04/28 13:51:25;;;;;;;;;;;;;;;;;;5019280;28;19913;-77
2022/04/28 13:53:52;;;;;;;;;;;;;;;;;;5040275;28;20014;-77
2022/04/28 13:56:18;;;;;;;;;;;;;;;;;;5028757;28;19956;-75
2022/04/28 13:58:44;;;;;;;;;;;;;;;;;;5042901;28;19959;-75
2022/04/28 14:01:11;;;;;;;;;;;;;;;;;;5058968;28;19949;-76
2022/04/28 14:03:37;;;;;;;;;;;;;;;;;;5044816;28;19952;-78
2022/04/28 14:06:03;;;;;;;;;;;;;;;;;;5030257;28;19963;-79
2022/04/28 14:08:29;;;;;;;;;;;;;;;;;;5070633;28;19920;-81
2022/04/28 14:10:59;;;;;;;;;;;;;;;;;;5042729;28;22002;-79
2022/04/28 14:13:25;;;;;;;;;;;;;;;;;;5063416;28;19917;-78
2022/04/28 14:15:51;;;;;;;;;;;;;;;;;;5035944;28;20345;-79
2022/04/28 14:18:17;;;;;;;;;;;;;;;;;;5060899;28;19955;-78
2022/04/28 14:20:44;;;;;;;;;;;;;;;;;;5047912;28;20892;-79
2022/04/28 14:23:10;;;;;;;;;;;;;;;;;;5048803;28;19964;-78
2022/04/28 14:25:36;;;;;;;;;;;;;;;;;;5038179;28;20269;-79
2022/04/28 14:28:02;;;;;;;;;;;;;;;;;;5053846;28;19912;-79
2022/04/28 14:30:28;;;;;;;;;;;;;;;;;;5049805;28;20498;-78
2022/04/28 14:32:55;;;;;;;;;;;;;;;;;;5046088;28;19956;-79
2022/04/28 14:35:21;;;;;;;;;;;;;;;;;;5040049;28;19925;-79
2022/04/28 14:37:47;;;;;;;;;;;;;;;;;;5050171;28;19944;-78
2022/04/28 14:40:13;;;;;;;;;;;;;;;;;;5052511;28;19941;-79
2022/04/28 14:42:40;;;;;;;;;;;;;;;;;;5029605;28;19944;-79
2022/04/28 14:45:09;;;;;;;;;;;;;;;;;;5048465;28;19920;-79
2022/04/28 14:47:35;;;;;;;;;;;;;;;;;;5046501;28;19964;-80
2022/04/28 14:52:47;;;;;;;;;;;;;;;;;;5050384;28;20494;-80
2022/04/28 14:55:13;;;;;;;;;;;;;;;;;;5044843;28;19952;-79
2022/04/28 14:57:39;;;;;;;;;;;;;;;;;;5055873;28;19966;-80
2022/04/28 15:00:08;;;;;;;;;;;;;;;;;;5057448;28;19916;-78
2022/04/28 15:02:34;;;;;;;;;;;;;;;;;;5040059;28;20449;-79
2022/04/28 15:05:00;;;;;;;;;;;;;;;;;;5035179;28;19921;-78
2022/04/28 15:07:26;;;;;;;;;;;;;;;;;;5048007;28;19959;-78
2022/04/28 15:09:53;;;;;;;;;;;;;;;;;;5044193;28;20019;-78
2022/04/28 15:12:19;;;;;;;;;;;;;;;;;;5041063;28;20681;-76
2022/04/28 15:14:45;;;;;;;;;;;;;;;;;;5041624;28;20375;-79
2022/04/28 15:17:12;;;;;;;;;;;;;;;;;;5034671;28;19960;-80
2022/04/28 15:19:38;;;;;;;;;;;;;;;;;;5036423;28;19964;-78
2022/04/28 15:22:04;;;;;;;;;;;;;;;;;;5043167;28;19960;-81
2022/04/28 15:24:30;;;;;;;;;;;;;;;;;;5034154;28;19956;-78
2022/04/28 15:26:56;;;;;;;;;;;;;;;;;;5069298;28;19963;-77
2022/04/28 15:29:23;;;;;;;;;;;;;;;;;;5048285;28;19956;-75
2022/04/28 15:31:49;;;;;;;;;;;;;;;;;;5036767;28;20572;-75
2022/04/28 15:34:15;;;;;;;;;;;;;;;;;;5050667;28;19952;-77
2022/04/28 15:36:41;;;;;;;;;;;;;;;;;;5038212;28;20386;-78
2022/04/28 15:39:07;;;;;;;;;;;;;;;;;;5043224;28;20014;-77
2022/04/28 15:41:33;;;;;;;;;;;;;;;;;;5033524;28;20364;-78
2022/04/28 15:44:02;;;;;;;;;;;;;;;;;;5039916;28;19956;-78
2022/04/28 15:46:28;;;;;;;;;;;;;;;;;;5063813;28;19973;-78
2022/04/28 15:48:54;;;;;;;;;;;;;;;;;;5038933;28;20048;-79
2022/04/28 15:51:21;;;;;;;;;;;;;;;;;;5032138;28;19925;-79
2022/04/28 15:53:47;;;;;;;;;;;;;;;;;;5054862;28;19960;-79
2022/04/28 15:56:13;;;;;;;;;;;;;;;;;;5031867;28;19964;-79
2022/04/28 15:58:39;;;;;;;;;;;;;;;;;;5039465;28;19959;-78
2022/04/28 16:01:05;;;;;;;;;;;;;;;;;;5035669;28;20459;-78
2022/04/28 16:03:32;;;;;;;;;;;;;;;;;;5019733;28;20049;-79
2022/04/28 16:05:58;;;;;;;;;;;;;;;;;;5055182;28;20385;-82
2022/04/28 16:08:24;;;;;;;;;;;;;;;;;;5031161;28;20497;-78
2022/04/28 16:10:50;;;;;;;;;;;;;;;;;;5033846;28;19917;-78
2022/04/28 16:13:16;;;;;;;;;;;;;;;;;;5032786;28;19979;-79
2022/04/28 16:15:43;;;;;;;;;;;;;;;;;;5041601;28;20046;-79
2022/04/28 16:18:09;;;;;;;;;;;;;;;;;;5037413;28;19941;-79
2022/04/28 16:20:36;;;;;;;;;;;;;;;;;;5040132;28;19963;-79
2022/04/28 16:23:03;;;;;;;;;;;;;;;;;;5039781;28;19961;-80
2022/04/28 16:25:29;;;;;;;;;;;;;;;;;;5037633;28;19945;-79
2022/04/28 16:27:55;;;;;;;;;;;;;;;;;;5038448;28;19952;-79
2022/04/28 16:30:21;;;;;;;;;;;;;;;;;;5040222;28;19964;-79
2022/04/28 16:32:48;;;;;;;;;;;;;;;;;;5038694;28;20011;-79
2022/04/28 16:35:15;;;;;;;;;;;;;;;;;;5024650;28;19940;-79
2022/04/28 16:37:41;;;;;;;;;;;;;;;;;;5043385;28;19964;-79
2022/04/28 16:40:07;;;;;;;;;;;;;;;;;;5025143;28;20025;-78
2022/04/28 16:42:34;;;;;;;;;;;;;;;;;;5038048;28;19970;-79
2022/04/28 16:45:00;;;;;;;;;;;;;;;;;;5043213;28;19960;-79
2022/04/28 16:47:26;;;;;;;;;;;;;;;;;;5044538;28;20325;-78
2022/04/28 16:49:52;;;;;;;;;;;;;;;;;;5037781;28;20381;-78
2022/04/28 16:52:19;;;;;;;;;;;;;;;;;;5053396;28;20014;-78
2022/04/28 16:54:45;;;;;;;;;;;;;;;;;;5041070;28;19959;-78
2022/04/28 16:57:11;;;;;;;;;;;;;;;;;;5039149;28;19960;-78
2022/04/28 16:59:37;;;;;;;;;;;;;;;;;;5040579;28;19959;-78
2022/04/28 17:02:03;;;;;;;;;;;;;;;;;;5044318;28;19944;-78
2022/04/28 17:04:31;;;;;;;;;;;;;;;;;;5040889;28;19975;-77
2022/04/28 17:06:57;;;;;;;;;;;;;;;;;;5034529;28;19947;-78
2022/04/28 17:09:24;;;;;;;;;;;;;;;;;;5055199;28;19960;-78
2022/04/28 17:11:50;;;;;;;;;;;;;;;;;;5042111;28;19959;-78
2022/04/28 17:14:16;;;;;;;;;;;;;;;;;;5038232;28;19948;-78
2022/04/28 17:16:43;;;;;;;;;;;;;;;;;;5046392;28;19964;-78
2022/04/28 17:19:09;;;;;;;;;;;;;;;;;;5042716;28;20397;-78
2022/04/28 17:21:35;;;;;;;;;;;;;;;;;;5043211;28;19943;-79
2022/04/28 17:24:01;;;;;;;;;;;;;;;;;;5040403;28;20552;-79
2022/04/28 17:26:28;;;;;;;;;;;;;;;;;;5020128;28;19948;-78
2022/04/28 17:28:54;;;;;;;;;;;;;;;;;;5037769;28;20350;-78